createdAt,value
2022-11-02T00:01:20.520Z,11.10
2022-11-02T00:03:48.451Z,11.10
2022-11-02T00:06:15.838Z,11.00
2022-11-02T00:08:43.181Z,11.10
2022-11-02T00:11:10.718Z,11.00
2022-11-02T00:13:38.367Z,11.10
2022-11-02T00:16:09.692Z,11.00
2022-11-02T00:18:38.120Z,11.00
2022-11-02T00:21:06.023Z,11.00
2022-11-02T00:23:33.957Z,11.00
2022-11-02T00:26:02.827Z,11.10
2022-11-02T00:28:31.268Z,11.10
2022-11-02T00:30:58.728Z,11.10
2022-11-02T00:33:26.866Z,11.10
2022-11-02T00:35:55.333Z,11.10
2022-11-02T00:38:22.717Z,11.10
2022-11-02T00:40:50.109Z,11.00
2022-11-02T00:43:17.537Z,11.00
2022-11-02T00:45:44.909Z,10.90
2022-11-02T00:48:12.252Z,10.80
2022-11-02T00:50:39.609Z,10.90
2022-11-02T00:53:06.934Z,10.90
2022-11-02T00:55:34.308Z,10.90
2022-11-02T00:58:02.070Z,10.90
2022-11-02T01:00:30.070Z,10.90
2022-11-02T01:03:01.616Z,10.80
2022-11-02T01:05:29.928Z,10.80
2022-11-02T01:07:58.519Z,10.90
2022-11-02T01:10:28.578Z,10.80
2022-11-02T01:12:55.948Z,10.80
2022-11-02T01:15:23.322Z,10.80
2022-11-02T01:17:50.786Z,10.70
2022-11-02T01:20:18.468Z,10.70
2022-11-02T01:22:45.824Z,10.70
2022-11-02T01:25:13.184Z,10.70
2022-11-02T01:27:40.575Z,10.60
2022-11-02T01:30:08.361Z,10.60
2022-11-02T01:32:35.738Z,10.70
2022-11-02T01:35:03.266Z,10.60
2022-11-02T01:37:30.781Z,10.60
2022-11-02T01:39:58.120Z,10.60
2022-11-02T01:42:28.319Z,10.60
2022-11-02T01:44:55.666Z,10.60
2022-11-02T01:47:28.255Z,10.50
2022-11-02T01:50:02.664Z,10.50
2022-11-02T01:52:34.884Z,10.50
2022-11-02T01:55:12.838Z,10.50
2022-11-02T01:57:43.576Z,10.50
2022-11-02T02:00:13.653Z,10.50
2022-11-02T02:02:53.949Z,10.40
2022-11-02T02:05:23.836Z,10.40
2022-11-02T02:07:52.498Z,10.40
2022-11-02T02:10:19.944Z,10.40
2022-11-02T02:12:48.045Z,10.40
2022-11-02T02:15:15.810Z,10.40
2022-11-02T02:18:05.485Z,10.40
2022-11-02T02:20:32.944Z,10.30
2022-11-02T02:23:01.394Z,10.30
2022-11-02T02:25:46.618Z,10.30
2022-11-02T02:28:22.350Z,10.30
2022-11-02T02:31:09.585Z,10.30
2022-11-02T02:33:42.934Z,10.30
2022-11-02T02:36:24.530Z,10.30
2022-11-02T02:39:01.053Z,10.30
2022-11-02T02:41:39.510Z,10.30
2022-11-02T02:44:22.071Z,10.20
2022-11-02T02:47:15.107Z,10.30
2022-11-02T02:49:52.564Z,10.30
2022-11-02T02:52:21.810Z,10.30
2022-11-02T02:54:52.373Z,10.20
2022-11-02T02:57:23.795Z,10.20
2022-11-02T02:59:51.313Z,10.20
2022-11-02T03:02:34.030Z,10.20
2022-11-02T03:05:01.544Z,10.20
2022-11-02T03:07:39.138Z,10.10
2022-11-02T03:10:16.783Z,10.10
2022-11-02T03:13:07.200Z,10.10
2022-11-02T03:15:47.004Z,10.10
2022-11-02T03:18:36.460Z,10.00
2022-11-02T03:21:20.053Z,10.00
2022-11-02T03:23:55.231Z,10.10
2022-11-02T03:26:36.789Z,10.10
2022-11-02T03:29:09.390Z,10.00
2022-11-02T03:31:54.993Z,10.00
2022-11-02T03:34:32.684Z,10.00
2022-11-02T03:37:06.106Z,10.00
2022-11-02T03:39:42.028Z,10.00
2022-11-02T03:42:13.133Z,9.90
2022-11-02T03:44:41.282Z,9.90
2022-11-02T03:47:12.431Z,10.00
2022-11-02T03:49:40.998Z,9.90
2022-11-02T03:52:13.049Z,9.90
2022-11-02T03:55:08.015Z,9.90
2022-11-02T03:57:46.334Z,9.90
2022-11-02T04:00:19.601Z,9.80
2022-11-02T04:02:53.398Z,9.80
2022-11-02T04:05:26.923Z,9.80
2022-11-02T04:08:14.637Z,9.80
2022-11-02T04:11:02.255Z,9.80
2022-11-02T04:13:48.480Z,9.80
2022-11-02T04:16:16.261Z,9.80
2022-11-02T04:19:02.661Z,9.70
2022-11-02T04:21:30.464Z,9.70
2022-11-02T04:24:16.875Z,9.70
2022-11-02T04:26:44.267Z,9.70
2022-11-02T04:29:11.643Z,9.70
2022-11-02T04:31:38.980Z,9.80
2022-11-02T04:34:06.341Z,9.70
2022-11-02T04:36:33.791Z,9.70
2022-11-02T04:39:01.217Z,9.70
2022-11-02T04:41:49.215Z,9.60
2022-11-02T04:44:17.139Z,9.60
2022-11-02T04:46:45.552Z,9.60
2022-11-02T04:49:14.339Z,9.60
2022-11-02T04:51:47.216Z,9.60
2022-11-02T04:54:16.226Z,9.60
2022-11-02T04:56:43.553Z,9.60
2022-11-02T04:59:11.422Z,9.50
2022-11-02T05:01:38.949Z,9.60
2022-11-02T05:04:06.376Z,9.60
2022-11-02T05:06:33.718Z,9.60
2022-11-02T05:09:01.031Z,9.60
2022-11-02T05:11:28.392Z,9.60
2022-11-02T05:13:55.743Z,9.60
2022-11-02T05:16:23.119Z,9.60
2022-11-02T05:18:50.424Z,9.50
2022-11-02T05:21:17.824Z,9.50
2022-11-02T05:23:45.383Z,9.50
2022-11-02T05:26:13.087Z,9.50
2022-11-02T05:28:40.690Z,9.50
2022-11-02T05:31:08.130Z,9.50
2022-11-02T05:33:35.738Z,9.60
2022-11-02T05:36:03.615Z,9.60
2022-11-02T05:38:31.061Z,9.60
2022-11-02T05:40:59.727Z,9.60
2022-11-02T05:43:27.816Z,9.60
2022-11-02T05:45:56.647Z,9.60
2022-11-02T05:48:25.498Z,9.60
2022-11-02T05:51:01.959Z,9.60
2022-11-02T05:53:32.644Z,9.60
2022-11-02T05:56:01.566Z,9.60
2022-11-02T05:58:29.336Z,9.60
2022-11-02T06:01:05.339Z,9.60
2022-11-02T06:03:33.166Z,9.60
2022-11-02T06:06:06.404Z,9.60
2022-11-02T06:08:38.551Z,9.60
2022-11-02T06:11:11.085Z,9.60
2022-11-02T06:13:39.459Z,9.60
2022-11-02T06:16:09.589Z,9.60
2022-11-02T06:18:38.290Z,9.60
2022-11-02T06:21:06.153Z,9.60
2022-11-02T06:23:33.760Z,9.60
2022-11-02T06:26:02.011Z,9.60
2022-11-02T06:28:30.894Z,9.60
2022-11-02T06:30:58.467Z,9.60
2022-11-02T06:33:26.384Z,9.60
2022-11-02T06:35:54.707Z,9.60
2022-11-02T06:38:22.681Z,9.60
2022-11-02T06:40:57.594Z,9.70
2022-11-02T06:43:25.752Z,9.70
2022-11-02T06:45:57.987Z,9.70
2022-11-02T06:48:33.060Z,9.70
2022-11-02T06:51:03.475Z,9.70
2022-11-02T06:53:31.176Z,9.60
2022-11-02T06:55:59.799Z,9.70
2022-11-02T06:58:27.820Z,9.70
2022-11-02T07:01:03.716Z,9.60
2022-11-02T07:03:31.629Z,9.70
2022-11-02T07:05:59.464Z,9.70
2022-11-02T07:08:27.871Z,9.70
2022-11-02T07:10:56.060Z,9.80
2022-11-02T07:13:23.451Z,9.70
2022-11-02T07:15:54.845Z,9.70
2022-11-02T07:18:23.091Z,9.70
2022-11-02T07:20:50.539Z,9.70
2022-11-02T07:23:18.011Z,9.70
2022-11-02T07:25:45.398Z,9.80
2022-11-02T07:28:12.751Z,9.80
2022-11-02T07:30:40.163Z,9.90
2022-11-02T07:33:07.782Z,9.90
2022-11-02T07:35:35.719Z,9.90
2022-11-02T07:38:05.498Z,10.00
2022-11-02T07:40:35.278Z,10.10
2022-11-02T07:43:03.236Z,10.10
2022-11-02T07:45:31.035Z,10.10
2022-11-02T07:47:58.369Z,10.10
2022-11-02T07:50:27.191Z,10.10
2022-11-02T07:52:57.076Z,10.10
2022-11-02T07:55:29.677Z,10.20
2022-11-02T07:58:01.546Z,10.20
2022-11-02T08:00:31.764Z,10.20
2022-11-02T08:03:01.048Z,10.30
2022-11-02T08:05:30.106Z,10.30
2022-11-02T08:08:02.644Z,10.30
2022-11-02T08:10:35.566Z,10.40
2022-11-02T08:13:07.579Z,10.40
2022-11-02T08:15:34.995Z,10.50
2022-11-02T08:18:16.369Z,10.50
2022-11-02T08:20:45.913Z,10.60
2022-11-02T08:23:15.684Z,10.60
2022-11-02T08:25:45.770Z,10.70
2022-11-02T08:28:16.603Z,10.70
2022-11-02T08:30:44.712Z,10.80
2022-11-02T08:33:15.518Z,10.80
2022-11-02T08:35:44.728Z,10.90
2022-11-02T08:38:12.750Z,10.90
2022-11-02T08:40:40.635Z,11.00
2022-11-02T08:43:12.717Z,11.10
2022-11-02T08:46:13.310Z,11.20
2022-11-02T08:48:29.747Z,11.20
2022-11-02T08:50:57.251Z,11.30
2022-11-02T08:53:24.657Z,11.40
2022-11-02T08:55:52.006Z,11.50
2022-11-02T08:58:19.414Z,11.50
2022-11-02T09:00:46.853Z,11.60
2022-11-02T09:03:15.641Z,11.70
2022-11-02T09:05:45.442Z,11.70
2022-11-02T09:08:18.217Z,11.80
2022-11-02T09:10:49.260Z,11.80
2022-11-02T09:13:20.769Z,11.90
2022-11-02T09:15:54.161Z,12.00
2022-11-02T09:18:22.771Z,12.00
2022-11-02T09:20:51.487Z,12.10
2022-11-02T09:23:21.064Z,12.20
2022-11-02T09:25:49.514Z,12.20
2022-11-02T09:28:16.812Z,12.30
2022-11-02T09:30:44.273Z,12.40
2022-11-02T09:33:11.975Z,12.40
2022-11-02T09:35:42.756Z,12.50
2022-11-02T09:38:10.203Z,12.60
2022-11-02T09:41:07.881Z,12.70
2022-11-02T09:43:57.976Z,12.80
2022-11-02T09:46:30.264Z,12.80
2022-11-02T09:49:01.459Z,12.90
2022-11-02T09:51:33.427Z,13.00
2022-11-02T09:54:13.133Z,13.10
2022-11-02T09:56:44.569Z,13.10
2022-11-02T09:59:24.162Z,13.30
2022-11-02T10:02:30.734Z,13.30
2022-11-02T10:04:58.139Z,13.40
2022-11-02T10:07:49.618Z,13.50
2022-11-02T10:10:26.288Z,13.50
2022-11-02T10:13:26.017Z,13.50
2022-11-02T10:16:00.408Z,13.50
2022-11-02T10:18:30.112Z,13.60
2022-11-02T10:21:00.308Z,13.60
2022-11-02T10:23:52.436Z,13.60
2022-11-02T10:26:32.782Z,13.60
2022-11-02T10:29:18.269Z,13.70
2022-11-02T10:31:46.057Z,13.70
2022-11-02T10:34:29.561Z,13.70
2022-11-02T10:37:21.428Z,13.80
2022-11-02T10:39:57.452Z,13.80
2022-11-02T10:42:51.784Z,13.90
2022-11-02T10:45:44.514Z,13.80
2022-11-02T10:48:34.312Z,13.90
2022-11-02T10:51:09.684Z,14.00
2022-11-02T10:53:42.064Z,14.10
2022-11-02T10:56:43.270Z,14.10
2022-11-02T10:59:16.254Z,14.20
2022-11-02T11:01:48.302Z,14.20
2022-11-02T11:04:42.598Z,14.30
2022-11-02T11:07:17.649Z,14.30
2022-11-02T11:09:54.018Z,14.30
2022-11-02T11:12:30.503Z,14.40
2022-11-02T11:20:38.194Z,14.30
2022-11-02T11:23:21.769Z,14.40
2022-11-02T11:26:06.567Z,14.40
2022-11-02T11:28:37.936Z,14.40
2022-11-02T11:31:12.326Z,14.40
2022-11-02T11:34:22.235Z,14.40
2022-11-02T11:36:49.754Z,14.30
2022-11-02T11:39:31.741Z,14.30
2022-11-02T11:41:59.771Z,14.40
2022-11-02T11:44:27.373Z,14.40
2022-11-02T11:46:58.077Z,14.40
2022-11-02T11:50:08.608Z,14.40
2022-11-02T11:52:31.719Z,14.40
2022-11-02T11:55:24.715Z,14.30
2022-11-02T11:58:24.246Z,14.30
2022-11-02T12:01:17.086Z,14.20
2022-11-02T12:04:00.414Z,14.10
2022-11-02T12:07:05.230Z,14.20
2022-11-02T12:09:36.971Z,14.20
2022-11-02T12:12:17.311Z,14.30
2022-11-02T12:15:16.603Z,14.40
2022-11-02T12:17:59.603Z,14.40
2022-11-02T12:20:50.769Z,14.40
2022-11-02T12:23:38.367Z,14.40
2022-11-02T12:26:21.244Z,14.40
2022-11-02T12:28:54.456Z,14.50
2022-11-02T12:31:24.791Z,14.40
2022-11-02T12:34:06.183Z,14.40
2022-11-02T12:37:39.079Z,14.40
2022-11-02T12:40:06.499Z,14.40
2022-11-02T12:42:40.616Z,14.40
2022-11-02T12:45:22.386Z,14.40
2022-11-02T12:48:00.199Z,14.40
2022-11-02T12:50:33.175Z,14.40
2022-11-02T12:53:36.955Z,14.40
2022-11-02T12:56:08.029Z,14.40
2022-11-02T12:58:38.779Z,14.50
2022-11-02T13:01:21.030Z,14.50
2022-11-02T13:04:10.907Z,14.50
2022-11-02T13:06:44.074Z,14.50
2022-11-02T13:09:34.624Z,14.60
2022-11-02T13:12:14.644Z,14.60
2022-11-02T13:14:47.718Z,14.60
2022-11-02T13:17:40.046Z,14.50
2022-11-02T13:20:16.797Z,14.60
2022-11-02T13:22:47.799Z,14.60
2022-11-02T13:25:17.443Z,14.60
2022-11-02T13:28:13.699Z,14.70
2022-11-02T13:30:43.496Z,14.70
2022-11-02T13:33:43.420Z,14.80
2022-11-02T13:36:11.495Z,14.80
2022-11-02T13:38:49.324Z,14.80
2022-11-02T13:41:32.660Z,14.70
2022-11-02T13:44:01.283Z,14.70
2022-11-02T13:46:59.660Z,14.60
2022-11-02T13:49:40.398Z,14.50
2022-11-02T13:52:22.019Z,14.50
2022-11-02T13:57:36.500Z,14.50
2022-11-02T14:00:21.192Z,14.40
2022-11-02T14:03:13.579Z,14.40
2022-11-02T14:05:46.261Z,14.50
2022-11-02T14:08:22.559Z,14.50
2022-11-02T14:11:04.820Z,14.60
2022-11-02T14:13:53.840Z,14.60
2022-11-02T14:16:53.614Z,14.60
2022-11-02T14:19:22.331Z,14.60
2022-11-02T14:21:53.231Z,14.60
2022-11-02T14:24:38.259Z,14.60
2022-11-02T14:27:25.539Z,14.60
2022-11-02T14:29:54.863Z,14.60
2022-11-02T14:32:42.522Z,14.60
2022-11-02T14:35:27.940Z,14.60
2022-11-02T14:38:04.678Z,14.60
2022-11-02T14:40:59.451Z,14.50
2022-11-02T14:43:47.750Z,14.50
2022-11-02T14:46:38.790Z,14.50
2022-11-02T14:49:15.370Z,14.50
2022-11-02T14:51:55.866Z,14.50
2022-11-02T14:54:25.352Z,14.50
2022-11-02T14:57:06.413Z,14.40
2022-11-02T14:59:37.133Z,14.40
2022-11-02T15:02:05.674Z,14.40
2022-11-02T15:04:35.529Z,14.40
2022-11-02T15:07:05.596Z,14.40
2022-11-02T15:09:53.171Z,14.40
2022-11-02T15:12:39.478Z,14.40
2022-11-02T15:15:28.382Z,14.40
2022-11-02T15:18:00.190Z,14.40
2022-11-02T15:20:33.062Z,14.40
2022-11-02T15:23:21.131Z,14.40
2022-11-02T15:25:56.998Z,14.40
2022-11-02T15:28:27.767Z,14.40
2022-11-02T15:30:59.602Z,14.40
2022-11-02T15:33:35.939Z,14.40
2022-11-02T15:36:06.536Z,14.30
2022-11-02T15:38:39.714Z,14.30
2022-11-02T15:41:39.749Z,14.30
2022-11-02T15:44:22.698Z,14.40
2022-11-02T15:47:28.203Z,14.30
2022-11-02T15:50:01.375Z,14.40
2022-11-02T15:53:21.210Z,14.30
2022-11-02T15:55:48.338Z,14.30
2022-11-02T15:58:41.418Z,14.30
2022-11-02T16:01:24.920Z,14.30
2022-11-02T16:04:04.145Z,14.30
2022-11-02T16:06:41.539Z,14.30
2022-11-02T16:09:30.911Z,14.30
2022-11-02T16:12:21.772Z,14.30
2022-11-02T16:15:18.322Z,14.30
2022-11-02T16:17:52.828Z,14.40
2022-11-02T16:20:28.491Z,14.30
2022-11-02T16:23:02.120Z,14.30
2022-11-02T16:25:38.450Z,14.30
2022-11-02T16:28:21.976Z,14.40
2022-11-02T16:31:17.207Z,14.40
2022-11-02T16:33:54.539Z,14.40
2022-11-02T16:36:33.263Z,14.40
2022-11-02T16:39:22.629Z,14.50
2022-11-02T16:41:55.542Z,14.40
2022-11-02T16:44:31.279Z,14.40
2022-11-02T16:47:17.984Z,14.50
2022-11-02T16:49:51.337Z,14.60
2022-11-02T16:52:25.736Z,14.50
2022-11-02T16:54:53.175Z,14.60
2022-11-02T16:57:46.967Z,14.60
2022-11-02T17:00:20.871Z,14.60
2022-11-02T17:02:48.551Z,14.60
2022-11-02T17:05:22.874Z,14.60
2022-11-02T17:08:08.632Z,14.60
2022-11-02T17:10:38.588Z,14.60
2022-11-02T17:13:17.288Z,14.60
2022-11-02T17:15:51.335Z,14.60
2022-11-02T17:18:21.712Z,14.70
2022-11-02T17:21:09.038Z,14.70
2022-11-02T17:23:37.074Z,14.80
2022-11-02T17:26:24.976Z,14.80
2022-11-02T17:28:56.285Z,14.80
2022-11-02T17:31:35.586Z,14.80
2022-11-02T17:34:10.010Z,14.80
2022-11-02T17:36:44.761Z,14.80
2022-11-02T17:39:16.706Z,14.80
2022-11-02T17:42:04.661Z,14.80
2022-11-02T17:44:32.022Z,14.80
2022-11-02T17:46:59.608Z,14.90
2022-11-02T17:49:26.956Z,14.90
2022-11-02T17:51:54.365Z,14.90
2022-11-02T17:54:21.784Z,14.90
2022-11-02T17:56:49.119Z,14.90
2022-11-02T17:59:16.536Z,15.00
2022-11-02T18:01:44.102Z,15.00
2022-11-02T18:04:11.638Z,15.00
2022-11-02T18:06:39.012Z,14.90
2022-11-02T18:09:14.394Z,15.00
2022-11-02T18:11:41.834Z,15.00
2022-11-02T18:14:14.492Z,15.00
2022-11-02T18:16:41.898Z,15.00
2022-11-02T18:19:09.427Z,15.00
2022-11-02T18:21:36.867Z,15.00
2022-11-02T18:24:04.350Z,15.00
2022-11-02T18:26:31.755Z,14.90
2022-11-02T18:28:59.160Z,15.00
2022-11-02T18:31:26.553Z,14.90
2022-11-02T18:33:53.903Z,14.90
2022-11-02T18:36:21.340Z,14.80
2022-11-02T18:38:48.701Z,14.80
2022-11-02T18:41:34.801Z,14.80
2022-11-02T18:44:08.901Z,14.70
2022-11-02T18:46:39.250Z,14.40
2022-11-02T18:49:06.670Z,14.20
2022-11-02T18:51:34.088Z,14.00
2022-11-02T18:54:04.262Z,13.90
2022-11-02T18:56:31.956Z,13.90
2022-11-02T18:58:59.861Z,13.90
2022-11-02T19:01:28.183Z,13.80
2022-11-02T19:03:58.224Z,13.80
2022-11-02T19:06:45.978Z,13.80
2022-11-02T19:09:21.511Z,13.80
2022-11-02T19:12:05.093Z,13.80
2022-11-02T19:14:38.161Z,13.80
2022-11-02T19:17:06.758Z,13.80
2022-11-02T19:19:34.964Z,13.90
2022-11-02T19:22:02.868Z,14.00
2022-11-02T19:24:30.216Z,14.00
2022-11-02T19:26:57.826Z,13.90
2022-11-02T19:29:25.328Z,13.90
2022-11-02T19:31:52.807Z,13.90
2022-11-02T19:34:20.147Z,13.90
2022-11-02T19:36:47.501Z,13.90
2022-11-02T19:39:14.829Z,13.80
2022-11-02T19:41:42.231Z,13.80
2022-11-02T19:44:09.585Z,13.70
2022-11-02T19:46:37.071Z,13.70
2022-11-02T19:49:04.475Z,13.70
2022-11-02T19:51:32.171Z,13.60
2022-11-02T19:54:01.909Z,13.60
2022-11-02T19:56:31.725Z,13.50
2022-11-02T19:58:59.667Z,13.50
2022-11-02T20:01:38.201Z,13.50
2022-11-02T20:04:06.576Z,13.50
2022-11-02T20:06:39.522Z,13.50
2022-11-02T20:09:10.311Z,13.50
2022-11-02T20:11:39.764Z,13.50
2022-11-02T20:14:07.350Z,13.50
2022-11-02T20:16:34.684Z,13.50
2022-11-02T20:19:02.423Z,13.60
2022-11-02T20:21:34.458Z,13.60
2022-11-02T20:24:04.597Z,13.60
2022-11-02T20:26:34.571Z,13.60
2022-11-02T20:29:03.581Z,13.70
2022-11-02T20:31:33.943Z,13.70
2022-11-02T20:34:01.971Z,13.70
2022-11-02T20:36:29.491Z,13.70
2022-11-02T20:38:57.864Z,13.70
2022-11-02T20:41:26.593Z,13.70
2022-11-02T20:43:55.644Z,13.70
2022-11-02T20:46:47.448Z,13.70
2022-11-02T20:49:48.688Z,13.70
2022-11-02T20:52:03.282Z,13.80
2022-11-02T20:54:30.611Z,13.80
2022-11-02T20:56:58.153Z,13.90
2022-11-02T20:59:25.787Z,13.90
2022-11-02T21:01:53.407Z,13.90
2022-11-02T21:04:21.835Z,13.90
2022-11-02T21:06:50.187Z,14.00
2022-11-02T21:09:18.504Z,13.90
2022-11-02T21:12:04.393Z,13.90
2022-11-02T21:14:31.885Z,14.00
2022-11-02T21:16:59.260Z,14.00
2022-11-02T21:19:26.617Z,14.00
2022-11-02T21:21:59.341Z,14.10
2022-11-02T21:24:28.330Z,14.10
2022-11-02T21:27:06.731Z,14.00
2022-11-02T21:29:34.947Z,14.00
2022-11-02T21:32:02.336Z,14.00
2022-11-02T21:34:29.696Z,14.00
2022-11-02T21:36:57.082Z,13.90
2022-11-02T21:39:24.528Z,13.90
2022-11-02T21:41:51.923Z,13.80
2022-11-02T21:44:19.320Z,13.20
2022-11-02T21:46:46.711Z,12.70
2022-11-02T21:49:14.156Z,12.30
2022-11-02T21:51:42.858Z,12.10
2022-11-02T21:54:10.525Z,12.00
2022-11-02T21:56:38.304Z,11.90
2022-11-02T21:59:06.230Z,11.80
2022-11-02T22:01:49.253Z,11.80
2022-11-02T22:04:31.952Z,11.70
2022-11-02T22:07:00.189Z,11.70
2022-11-02T22:09:28.824Z,11.60
2022-11-02T22:12:15.441Z,11.70
2022-11-02T22:14:44.596Z,11.60
2022-11-02T22:17:16.870Z,11.60
2022-11-02T22:19:50.667Z,11.70
2022-11-02T22:22:18.663Z,11.70
2022-11-02T22:24:46.087Z,11.80
2022-11-02T22:27:13.498Z,11.90
2022-11-02T22:29:40.797Z,12.00
2022-11-02T22:32:08.154Z,12.10
2022-11-02T22:34:35.539Z,12.10
2022-11-02T22:37:21.630Z,12.10
2022-11-02T22:39:50.660Z,12.10
2022-11-02T22:42:19.038Z,12.00
2022-11-02T22:44:46.413Z,12.00
2022-11-02T22:47:13.813Z,12.00
2022-11-02T22:49:41.322Z,12.00
2022-11-02T22:52:08.688Z,11.90
2022-11-02T22:54:36.105Z,11.90
2022-11-02T22:57:03.473Z,11.90
2022-11-02T22:59:30.864Z,11.90
2022-11-02T23:01:58.325Z,11.90
2022-11-02T23:04:25.804Z,11.90
2022-11-02T23:06:53.189Z,11.90
2022-11-02T23:09:21.577Z,11.90
2022-11-02T23:11:49.006Z,12.00
2022-11-02T23:14:17.136Z,11.90
2022-11-02T23:16:47.066Z,11.90
2022-11-02T23:19:25.242Z,11.90
2022-11-02T23:22:32.286Z,11.90
2022-11-02T23:25:19.732Z,12.00
2022-11-02T23:28:16.638Z,11.90
2022-11-02T23:31:02.890Z,11.90
2022-11-02T23:33:32.323Z,11.90
2022-11-02T23:36:13.774Z,11.90
2022-11-02T23:39:00.987Z,11.80
2022-11-02T23:41:29.543Z,11.80
2022-11-02T23:44:11.937Z,11.80
2022-11-02T23:46:48.651Z,11.70
2022-11-02T23:49:17.367Z,11.70
2022-11-02T23:52:03.350Z,11.70
2022-11-02T23:54:49.337Z,11.70
2022-11-02T23:57:16.775Z,11.70
2022-11-02T23:59:44.144Z,11.70
